• Join FlightAware (Why Join?)
  • Login
  • US Flag 
05:30PM EDT


 

Airport Tracker/Info


-or-


 

Live Flight TrackerFlight Track Log ✈ AAL1428 ✈ 26-May-2013 ✈ KSAT - KDFW

Flight Track Log - Related Links

Times and Time Zones

All times are in EDT time to prevent confusion due to time zone crossing. See the AAL1428 flight status page for this flight to view local times or setup timezone preferences in your user account.

Time Position Orientation Groundspeed Altitude Reporting Facility
EDT Latitude Longitude Course Direction KTS MPH feet Rate Location/Type
01:54PM 29.5200 -98.4569 130° Southeast 161 185 1,900  Level Houston Center
01:54PM 29.5056 -98.4372 130° Southeast 167 192 2,600 1,920 Climbing Houston Center
01:55PM 29.4667 -98.3794 128° Southeast 236 272 4,900 2,160 Climbing Houston Center
01:56PM 29.4578 -98.3661 127° Southeast 224 258 5,500 2,400 Climbing Houston Center
01:56PM 29.4486 -98.3217 103° East 256 295 7,100 2,580 Climbing Houston Center
01:57PM 29.4764 -98.3014 32° Northeast 254 292 8,200 2,040 Climbing Houston Center
01:58PM 29.5533 -98.3072 356° North 280 322 10,100 2,100 Climbing Houston Center
01:59PM 29.6444 -98.3222 352° North 306 352 12,600 2,340 Climbing Houston Center
02:00PM 29.7386 -98.3369 352° North 340 391 15,000 2,280 Climbing Houston Center
02:01PM 29.8381 -98.3517 353° North 359 413 17,300 1,980 Climbing Houston Center
02:02PM 29.9506 -98.3689 352° North 379 436 19,200 1,860 Climbing Houston Center
02:03PM 30.0597 -98.3861 352° North 394 453 21,200 2,040 Climbing Houston Center
02:04PM 30.1822 -98.3836 North 409 471 23,400 1,800 Climbing Houston Center
02:05PM 30.2947 -98.3669 North 407 468 25,000 1,680 Climbing Houston Center
02:06PM 30.3964 -98.3514 North 416 479 26,900 1,500 Climbing Houston Center
02:07PM 30.5097 -98.3339 North 410 472 28,100 1,020 Climbing Houston Center
02:08PM 30.6494 -98.3136 North 423 487 29,000 420 Climbing Houston Center
02:09PM 30.7753 -98.2950 North 443 510 29,000  Level Houston Center
02:10PM 30.9008 -98.2767 North 447 514 29,000  Level Houston Center
02:11PM 31.0253 -98.2572 North 445 512 29,000  Level Houston Center
02:12PM 31.1311 -98.2433 North 447 514 29,000 -600 Level Fort Worth Center
02:13PM 31.2567 -98.2275 North 447 514 28,000 -1,140 Descending Fort Worth Center
02:14PM 31.3819 -98.2042 North 447 514 26,800 -1,500 Descending Fort Worth Center
02:15PM 31.5053 -98.1881 North 442 509 25,000 -1,860 Descending Fort Worth Center
02:16PM 31.6183 -98.1428 19° North 437 503 23,100 -1,740 Descending Fort Worth Center
02:17PM 31.7186 -98.0947 22° Northeast 432 497 21,600 -1,680 Descending Fort Worth Center
02:18PM 31.8317 -98.0369 23° Northeast 432 497 19,800 -1,800 Descending Fort Worth Center
02:19PM 31.9428 -97.9839 22° Northeast 432 497 18,100 -1,740 Descending Fort Worth Center
02:20PM 32.0536 -97.9281 23° Northeast 416 479 16,400 -1,560 Descending Fort Worth Center
02:21PM 32.1414 -97.8844 23° Northeast 385 443 15,000 -1,500 Descending Fort Worth Center
02:22PM 32.2272 -97.7989 40° Northeast 364 419 13,500 -1,500 Descending Fort Worth Center
02:23PM 32.2861 -97.7256 46° Northeast 343 395 12,000 -1,260 Descending Fort Worth Center
02:24PM 32.3572 -97.6422 45° Northeast 328 377 11,000 -540 Descending Fort Worth Center
02:25PM 32.4158 -97.5683 47° Northeast 328 377 11,000  Level Fort Worth Center
02:26PM 32.4867 -97.4847 45° Northeast 328 377 11,000  Level Fort Worth Center
02:27PM 32.5453 -97.4133 46° Northeast 328 377 11,000  Level Fort Worth Center
02:28PM 32.6161 -97.3272 46° Northeast 328 377 11,000  Level Fort Worth Center
02:29PM 32.6725 -97.2578 46° Northeast 328 377 11,000  Level Fort Worth Center
02:30PM 32.7308 -97.1911 44° Northeast 282 325 11,000 -180 Level Fort Worth Center
02:31PM 32.7872 -97.1664 20° North 258 297 10,700 -1,320 Descending Fort Worth Center
02:32PM 32.8622 -97.1686 359° North 233 268 8,400 -2,040 Descending Fort Worth Center
02:33PM 32.9314 -97.1783 353° North 233 268 6,700 -1,980 Descending Fort Worth Center
02:34PM 33.0000 -97.1533 17° North 238 274 4,500 -2,160 Descending Fort Worth Center
02:35PM 33.0231 -97.0914 66° East 198 228 2,400 -1,440 Descending Fort Worth Center
02:36PM 32.9728 -97.0594 152° Southeast 119 137 1,700 -780 Descending Fort Worth Center
02:37PM 32.9333 -97.0500 169° South 127 146 800 -840 Descending Dallas / Fort Worth TRACON